sensor_id;sensor_type;location;lat;lon;timestamp;P1;durP1;ratioP1;P2;durP2;ratioP2
42810;SDS011;28457;55.680;37.656;2022-09-09T00:00:14;3.00;;;1.70;;
42810;SDS011;28457;55.680;37.656;2022-09-09T00:02:45;1.45;;;1.20;;
42810;SDS011;28457;55.680;37.656;2022-09-09T00:05:23;2.80;;;1.80;;
42810;SDS011;28457;55.680;37.656;2022-09-09T00:07:58;2.67;;;1.63;;
42810;SDS011;28457;55.680;37.656;2022-09-09T00:10:31;2.38;;;1.50;;
42810;SDS011;28457;55.680;37.656;2022-09-09T00:13:04;1.67;;;1.17;;
42810;SDS011;28457;55.680;37.656;2022-09-09T00:15:46;2.38;;;1.20;;
42810;SDS011;28457;55.680;37.656;2022-09-09T00:18:24;2.42;;;1.70;;
42810;SDS011;28457;55.680;37.656;2022-09-09T00:20:58;1.90;;;1.40;;
42810;SDS011;28457;55.680;37.656;2022-09-09T00:23:35;3.75;;;1.75;;
42810;SDS011;28457;55.680;37.656;2022-09-09T00:26:08;2.35;;;1.83;;
42810;SDS011;28457;55.680;37.656;2022-09-09T00:28:44;1.85;;;1.20;;
42810;SDS011;28457;55.680;37.656;2022-09-09T00:31:20;2.17;;;1.57;;
42810;SDS011;28457;55.680;37.656;2022-09-09T00:33:53;2.92;;;1.70;;
42810;SDS011;28457;55.680;37.656;2022-09-09T00:36:26;2.22;;;1.27;;
42810;SDS011;28457;55.680;37.656;2022-09-09T00:38:56;3.13;;;1.60;;
42810;SDS011;28457;55.680;37.656;2022-09-09T00:41:30;2.60;;;1.98;;
42810;SDS011;28457;55.680;37.656;2022-09-09T00:44:13;2.25;;;1.60;;
42810;SDS011;28457;55.680;37.656;2022-09-09T00:46:56;2.30;;;1.60;;
42810;SDS011;28457;55.680;37.656;2022-09-09T00:49:36;2.15;;;1.30;;
42810;SDS011;28457;55.680;37.656;2022-09-09T00:52:17;2.30;;;1.40;;
42810;SDS011;28457;55.680;37.656;2022-09-09T00:54:56;4.00;;;1.60;;
42810;SDS011;28457;55.680;37.656;2022-09-09T00:57:32;2.67;;;1.63;;
42810;SDS011;28457;55.680;37.656;2022-09-09T01:02:56;4.63;;;1.52;;
42810;SDS011;28457;55.680;37.656;2022-09-09T01:05:40;3.25;;;1.30;;
42810;SDS011;28457;55.680;37.656;2022-09-09T01:08:18;4.15;;;1.48;;
42810;SDS011;28457;55.680;37.656;2022-09-09T01:11:01;2.13;;;1.23;;
42810;SDS011;28457;55.680;37.656;2022-09-09T01:13:30;2.58;;;1.55;;
42810;SDS011;28457;55.680;37.656;2022-09-09T01:16:07;1.87;;;1.27;;
42810;SDS011;28457;55.680;37.656;2022-09-09T01:18:43;2.42;;;1.63;;
42810;SDS011;28457;55.680;37.656;2022-09-09T01:21:16;2.28;;;1.27;;
42810;SDS011;28457;55.680;37.656;2022-09-09T01:24:02;2.58;;;1.50;;
42810;SDS011;28457;55.680;37.656;2022-09-09T01:27:00;2.08;;;1.45;;
42810;SDS011;28457;55.680;37.656;2022-09-09T01:29:30;2.97;;;1.25;;
42810;SDS011;28457;55.680;37.656;2022-09-09T01:32:01;2.70;;;1.70;;
42810;SDS011;28457;55.680;37.656;2022-09-09T01:34:31;3.45;;;1.30;;
42810;SDS011;28457;55.680;37.656;2022-09-09T01:37:05;3.13;;;1.73;;
42810;SDS011;28457;55.680;37.656;2022-09-09T01:39:38;6.00;;;2.20;;
42810;SDS011;28457;55.680;37.656;2022-09-09T01:42:14;3.67;;;1.77;;
42810;SDS011;28457;55.680;37.656;2022-09-09T01:44:44;6.90;;;2.15;;
42810;SDS011;28457;55.680;37.656;2022-09-09T01:47:14;3.10;;;1.63;;
42810;SDS011;28457;55.680;37.656;2022-09-09T01:50:04;3.05;;;1.98;;
42810;SDS011;28457;55.680;37.656;2022-09-09T01:52:35;2.33;;;1.65;;
42810;SDS011;28457;55.680;37.656;2022-09-09T01:55:08;3.03;;;1.77;;
42810;SDS011;28457;55.680;37.656;2022-09-09T01:57:41;2.97;;;1.80;;
42810;SDS011;28457;55.680;37.656;2022-09-09T02:00:18;2.47;;;1.85;;
42810;SDS011;28457;55.680;37.656;2022-09-09T02:02:55;3.22;;;1.67;;
42810;SDS011;28457;55.680;37.656;2022-09-09T02:05:49;3.22;;;1.60;;
42810;SDS011;28457;55.680;37.656;2022-09-09T02:08:33;2.17;;;1.55;;
42810;SDS011;28457;55.680;37.656;2022-09-09T02:11:11;2.17;;;1.90;;
42810;SDS011;28457;55.680;37.656;2022-09-09T02:13:48;3.90;;;1.73;;
42810;SDS011;28457;55.680;37.656;2022-09-09T02:16:21;2.38;;;1.48;;
42810;SDS011;28457;55.680;37.656;2022-09-09T02:18:55;3.10;;;1.88;;
42810;SDS011;28457;55.680;37.656;2022-09-09T02:21:41;2.80;;;2.10;;
42810;SDS011;28457;55.680;37.656;2022-09-09T02:24:13;2.78;;;1.73;;
42810;SDS011;28457;55.680;37.656;2022-09-09T02:26:51;2.17;;;1.63;;
42810;SDS011;28457;55.680;37.656;2022-09-09T02:29:24;2.28;;;1.77;;
42810;SDS011;28457;55.680;37.656;2022-09-09T02:31:57;4.07;;;1.83;;
42810;SDS011;28457;55.680;37.656;2022-09-09T02:34:36;2.40;;;1.63;;
42810;SDS011;28457;55.680;37.656;2022-09-09T02:37:08;2.28;;;1.48;;
42810;SDS011;28457;55.680;37.656;2022-09-09T02:39:42;3.85;;;1.83;;
42810;SDS011;28457;55.680;37.656;2022-09-09T02:42:15;2.42;;;1.60;;
42810;SDS011;28457;55.680;37.656;2022-09-09T02:44:45;4.05;;;1.58;;
42810;SDS011;28457;55.680;37.656;2022-09-09T02:47:16;2.65;;;1.60;;
42810;SDS011;28457;55.680;37.656;2022-09-09T02:50:05;3.47;;;2.00;;
42810;SDS011;28457;55.680;37.656;2022-09-09T02:52:44;3.10;;;1.65;;
42810;SDS011;28457;55.680;37.656;2022-09-09T02:55:21;3.25;;;1.80;;
42810;SDS011;28457;55.680;37.656;2022-09-09T02:57:57;1.77;;;1.20;;
42810;SDS011;28457;55.680;37.656;2022-09-09T03:00:29;3.22;;;2.05;;
42810;SDS011;28457;55.680;37.656;2022-09-09T03:03:01;2.72;;;1.65;;
42810;SDS011;28457;55.680;37.656;2022-09-09T03:05:32;2.00;;;1.40;;
42810;SDS011;28457;55.680;37.656;2022-09-09T03:08:00;3.85;;;1.70;;
42810;SDS011;28457;55.680;37.656;2022-09-09T03:10:30;2.78;;;1.80;;
42810;SDS011;28457;55.680;37.656;2022-09-09T03:12:58;2.47;;;1.60;;
42810;SDS011;28457;55.680;37.656;2022-09-09T03:15:36;3.63;;;1.93;;
42810;SDS011;28457;55.680;37.656;2022-09-09T03:18:07;2.97;;;1.42;;
42810;SDS011;28457;55.680;37.656;2022-09-09T03:20:35;2.28;;;1.77;;
42810;SDS011;28457;55.680;37.656;2022-09-09T03:23:04;3.55;;;1.73;;
42810;SDS011;28457;55.680;37.656;2022-09-09T03:25:33;1.52;;;1.20;;
42810;SDS011;28457;55.680;37.656;2022-09-09T03:28:02;5.53;;;2.00;;
42810;SDS011;28457;55.680;37.656;2022-09-09T03:30:30;2.75;;;1.80;;
42810;SDS011;28457;55.680;37.656;2022-09-09T03:33:00;3.22;;;1.60;;
42810;SDS011;28457;55.680;37.656;2022-09-09T03:35:32;3.92;;;1.85;;
42810;SDS011;28457;55.680;37.656;2022-09-09T03:38:01;4.53;;;1.95;;
42810;SDS011;28457;55.680;37.656;2022-09-09T03:40:33;2.95;;;1.50;;
42810;SDS011;28457;55.680;37.656;2022-09-09T03:43:02;3.25;;;1.63;;
42810;SDS011;28457;55.680;37.656;2022-09-09T03:45:30;3.72;;;1.73;;
42810;SDS011;28457;55.680;37.656;2022-09-09T03:48:01;3.05;;;1.40;;
42810;SDS011;28457;55.680;37.656;2022-09-09T03:50:31;2.47;;;1.60;;
42810;SDS011;28457;55.680;37.656;2022-09-09T03:52:59;4.05;;;2.10;;
42810;SDS011;28457;55.680;37.656;2022-09-09T03:55:28;3.70;;;1.52;;
42810;SDS011;28457;55.680;37.656;2022-09-09T03:57:56;5.80;;;1.98;;
42810;SDS011;28457;55.680;37.656;2022-09-09T04:00:27;4.32;;;2.10;;
42810;SDS011;28457;55.680;37.656;2022-09-09T04:02:57;3.60;;;1.70;;
42810;SDS011;28457;55.680;37.656;2022-09-09T04:05:27;3.50;;;2.08;;
42810;SDS011;28457;55.680;37.656;2022-09-09T04:07:55;2.83;;;1.50;;
42810;SDS011;28457;55.680;37.656;2022-09-09T04:10:24;2.35;;;1.60;;
42810;SDS011;28457;55.680;37.656;2022-09-09T04:12:54;3.63;;;1.80;;
42810;SDS011;28457;55.680;37.656;2022-09-09T04:15:23;4.25;;;2.05;;
42810;SDS011;28457;55.680;37.656;2022-09-09T04:17:51;3.65;;;1.90;;
42810;SDS011;28457;55.680;37.656;2022-09-09T04:20:20;3.13;;;1.75;;
42810;SDS011;28457;55.680;37.656;2022-09-09T04:22:50;3.28;;;2.10;;
42810;SDS011;28457;55.680;37.656;2022-09-09T04:25:20;3.28;;;2.03;;
42810;SDS011;28457;55.680;37.656;2022-09-09T04:27:52;5.32;;;2.42;;
42810;SDS011;28457;55.680;37.656;2022-09-09T04:30:21;4.97;;;1.90;;
42810;SDS011;28457;55.680;37.656;2022-09-09T04:32:50;2.13;;;1.45;;
42810;SDS011;28457;55.680;37.656;2022-09-09T04:35:18;2.80;;;1.70;;
42810;SDS011;28457;55.680;37.656;2022-09-09T04:37:47;2.83;;;2.03;;
42810;SDS011;28457;55.680;37.656;2022-09-09T04:40:18;2.80;;;1.92;;
42810;SDS011;28457;55.680;37.656;2022-09-09T04:42:46;2.88;;;1.88;;
42810;SDS011;28457;55.680;37.656;2022-09-09T04:45:16;2.65;;;1.83;;
42810;SDS011;28457;55.680;37.656;2022-09-09T04:47:45;3.53;;;2.28;;
42810;SDS011;28457;55.680;37.656;2022-09-09T04:50:13;2.53;;;1.85;;
42810;SDS011;28457;55.680;37.656;2022-09-09T04:52:45;3.38;;;1.98;;
42810;SDS011;28457;55.680;37.656;2022-09-09T04:55:15;2.80;;;1.95;;
42810;SDS011;28457;55.680;37.656;2022-09-09T04:57:45;2.88;;;2.00;;
42810;SDS011;28457;55.680;37.656;2022-09-09T05:00:15;2.95;;;1.85;;
42810;SDS011;28457;55.680;37.656;2022-09-09T05:02:44;3.15;;;1.90;;
42810;SDS011;28457;55.680;37.656;2022-09-09T05:05:13;3.83;;;1.90;;
42810;SDS011;28457;55.680;37.656;2022-09-09T05:07:41;5.13;;;2.40;;
42810;SDS011;28457;55.680;37.656;2022-09-09T05:10:10;5.03;;;2.58;;
42810;SDS011;28457;55.680;37.656;2022-09-09T05:12:41;4.47;;;2.55;;
42810;SDS011;28457;55.680;37.656;2022-09-09T05:15:11;3.45;;;2.20;;
42810;SDS011;28457;55.680;37.656;2022-09-09T05:17:40;3.28;;;2.38;;
42810;SDS011;28457;55.680;37.656;2022-09-09T05:20:09;9.45;;;2.20;;
42810;SDS011;28457;55.680;37.656;2022-09-09T05:22:43;4.43;;;2.17;;
42810;SDS011;28457;55.680;37.656;2022-09-09T05:25:11;6.30;;;2.03;;
42810;SDS011;28457;55.680;37.656;2022-09-09T05:27:40;3.78;;;1.77;;
42810;SDS011;28457;55.680;37.656;2022-09-09T05:30:11;4.43;;;1.75;;
42810;SDS011;28457;55.680;37.656;2022-09-09T05:32:40;1.90;;;1.67;;
42810;SDS011;28457;55.680;37.656;2022-09-09T05:35:09;2.97;;;1.70;;
42810;SDS011;28457;55.680;37.656;2022-09-09T05:37:38;3.17;;;2.13;;
42810;SDS011;28457;55.680;37.656;2022-09-09T05:40:07;8.20;;;2.20;;
42810;SDS011;28457;55.680;37.656;2022-09-09T05:42:38;4.13;;;1.70;;
42810;SDS011;28457;55.680;37.656;2022-09-09T05:45:08;4.28;;;2.30;;
42810;SDS011;28457;55.680;37.656;2022-09-09T05:47:39;3.55;;;1.65;;
42810;SDS011;28457;55.680;37.656;2022-09-09T05:50:12;4.53;;;1.70;;
42810;SDS011;28457;55.680;37.656;2022-09-09T05:52:41;4.60;;;2.25;;
42810;SDS011;28457;55.680;37.656;2022-09-09T05:55:11;1.40;;;1.20;;
42810;SDS011;28457;55.680;37.656;2022-09-09T05:57:40;4.20;;;1.15;;
42810;SDS011;28457;55.680;37.656;2022-09-09T06:00:09;3.53;;;1.55;;
42810;SDS011;28457;55.680;37.656;2022-09-09T06:02:41;4.85;;;1.48;;
42810;SDS011;28457;55.680;37.656;2022-09-09T06:05:13;2.03;;;1.30;;
42810;SDS011;28457;55.680;37.656;2022-09-09T06:07:42;2.83;;;1.40;;
42810;SDS011;28457;55.680;37.656;2022-09-09T06:10:12;2.30;;;1.15;;
42810;SDS011;28457;55.680;37.656;2022-09-09T06:12:41;3.22;;;1.20;;
42810;SDS011;28457;55.680;37.656;2022-09-09T06:15:09;5.40;;;1.90;;
42810;SDS011;28457;55.680;37.656;2022-09-09T06:17:38;2.35;;;1.17;;
42810;SDS011;28457;55.680;37.656;2022-09-09T06:20:10;1.80;;;1.30;;
42810;SDS011;28457;55.680;37.656;2022-09-09T06:22:39;1.92;;;1.40;;
42810;SDS011;28457;55.680;37.656;2022-09-09T06:25:08;3.20;;;1.30;;
42810;SDS011;28457;55.680;37.656;2022-09-09T06:27:38;2.83;;;1.30;;
42810;SDS011;28457;55.680;37.656;2022-09-09T06:30:08;3.50;;;1.65;;
42810;SDS011;28457;55.680;37.656;2022-09-09T06:32:37;2.97;;;1.20;;
42810;SDS011;28457;55.680;37.656;2022-09-09T06:35:06;2.20;;;1.27;;
42810;SDS011;28457;55.680;37.656;2022-09-09T06:37:36;3.60;;;1.20;;
42810;SDS011;28457;55.680;37.656;2022-09-09T06:40:05;2.67;;;1.10;;
42810;SDS011;28457;55.680;37.656;2022-09-09T06:42:35;1.55;;;0.95;;
42810;SDS011;28457;55.680;37.656;2022-09-09T06:45:19;3.45;;;1.00;;
42810;SDS011;28457;55.680;37.656;2022-09-09T06:47:54;2.60;;;1.10;;
42810;SDS011;28457;55.680;37.656;2022-09-09T06:50:23;2.05;;;0.80;;
42810;SDS011;28457;55.680;37.656;2022-09-09T06:52:53;3.17;;;0.80;;
42810;SDS011;28457;55.680;37.656;2022-09-09T06:55:22;2.78;;;1.30;;
42810;SDS011;28457;55.680;37.656;2022-09-09T06:57:51;3.05;;;0.90;;
42810;SDS011;28457;55.680;37.656;2022-09-09T07:00:22;1.48;;;1.10;;
42810;SDS011;28457;55.680;37.656;2022-09-09T07:02:51;1.90;;;1.10;;
42810;SDS011;28457;55.680;37.656;2022-09-09T07:05:20;2.00;;;1.00;;
42810;SDS011;28457;55.680;37.656;2022-09-09T07:07:50;1.60;;;0.90;;
42810;SDS011;28457;55.680;37.656;2022-09-09T07:10:21;2.40;;;0.90;;
42810;SDS011;28457;55.680;37.656;2022-09-09T07:12:50;3.15;;;1.17;;
42810;SDS011;28457;55.680;37.656;2022-09-09T07:15:22;3.42;;;1.20;;
42810;SDS011;28457;55.680;37.656;2022-09-09T07:17:53;1.55;;;0.80;;
42810;SDS011;28457;55.680;37.656;2022-09-09T07:20:21;2.15;;;1.10;;
42810;SDS011;28457;55.680;37.656;2022-09-09T07:22:50;2.97;;;1.23;;
42810;SDS011;28457;55.680;37.656;2022-09-09T07:25:24;1.70;;;0.80;;
42810;SDS011;28457;55.680;37.656;2022-09-09T07:27:54;2.47;;;1.30;;
42810;SDS011;28457;55.680;37.656;2022-09-09T07:30:24;3.55;;;1.80;;
42810;SDS011;28457;55.680;37.656;2022-09-09T07:32:55;1.58;;;1.00;;
42810;SDS011;28457;55.680;37.656;2022-09-09T07:35:25;3.13;;;0.88;;
42810;SDS011;28457;55.680;37.656;2022-09-09T07:37:54;2.15;;;0.70;;
42810;SDS011;28457;55.680;37.656;2022-09-09T07:40:24;2.40;;;0.90;;
42810;SDS011;28457;55.680;37.656;2022-09-09T07:42:52;3.22;;;1.25;;
42810;SDS011;28457;55.680;37.656;2022-09-09T07:45:21;1.70;;;1.00;;
42810;SDS011;28457;55.680;37.656;2022-09-09T07:47:50;22.88;;;14.57;;
42810;SDS011;28457;55.680;37.656;2022-09-09T07:50:19;4.57;;;1.80;;
42810;SDS011;28457;55.680;37.656;2022-09-09T07:52:48;1.92;;;1.05;;
42810;SDS011;28457;55.680;37.656;2022-09-09T07:55:17;1.20;;;0.77;;
42810;SDS011;28457;55.680;37.656;2022-09-09T07:57:47;1.08;;;0.65;;
42810;SDS011;28457;55.680;37.656;2022-09-09T08:00:17;1.48;;;0.80;;
42810;SDS011;28457;55.680;37.656;2022-09-09T08:02:51;2.30;;;0.90;;
42810;SDS011;28457;55.680;37.656;2022-09-09T08:05:21;2.25;;;0.90;;
42810;SDS011;28457;55.680;37.656;2022-09-09T08:07:50;3.28;;;0.90;;
42810;SDS011;28457;55.680;37.656;2022-09-09T08:10:19;2.00;;;0.80;;
42810;SDS011;28457;55.680;37.656;2022-09-09T08:12:51;1.05;;;0.80;;
42810;SDS011;28457;55.680;37.656;2022-09-09T08:15:40;2.80;;;1.23;;
42810;SDS011;28457;55.680;37.656;2022-09-09T08:18:10;1.60;;;1.00;;
42810;SDS011;28457;55.680;37.656;2022-09-09T08:20:39;2.33;;;0.70;;
42810;SDS011;28457;55.680;37.656;2022-09-09T08:23:07;2.78;;;0.80;;
42810;SDS011;28457;55.680;37.656;2022-09-09T08:25:36;1.60;;;0.90;;
42810;SDS011;28457;55.680;37.656;2022-09-09T08:28:05;2.45;;;0.90;;
42810;SDS011;28457;55.680;37.656;2022-09-09T13:00:20;1.85;;;0.93;;
42810;SDS011;28457;55.680;37.656;2022-09-09T13:02:51;1.45;;;1.00;;
42810;SDS011;28457;55.680;37.656;2022-09-09T13:05:21;3.58;;;1.40;;
42810;SDS011;28457;55.680;37.656;2022-09-09T13:08:00;2.15;;;1.13;;
42810;SDS011;28457;55.680;37.656;2022-09-09T13:10:30;1.95;;;1.10;;
42810;SDS011;28457;55.680;37.656;2022-09-09T13:13:19;2.70;;;1.55;;
42810;SDS011;28457;55.680;37.656;2022-09-09T13:15:52;6.13;;;1.65;;
42810;SDS011;28457;55.680;37.656;2022-09-09T13:18:23;3.08;;;1.05;;
42810;SDS011;28457;55.680;37.656;2022-09-09T13:20:54;2.88;;;1.20;;
42810;SDS011;28457;55.680;37.656;2022-09-09T13:23:26;2.28;;;1.17;;
42810;SDS011;28457;55.680;37.656;2022-09-09T13:25:56;4.35;;;1.02;;
42810;SDS011;28457;55.680;37.656;2022-09-09T13:28:28;4.30;;;1.13;;
42810;SDS011;28457;55.680;37.656;2022-09-09T13:31:02;3.50;;;1.42;;
42810;SDS011;28457;55.680;37.656;2022-09-09T13:33:34;4.53;;;1.20;;
42810;SDS011;28457;55.680;37.656;2022-09-09T13:36:04;2.45;;;1.13;;
42810;SDS011;28457;55.680;37.656;2022-09-09T13:38:35;1.45;;;0.70;;
42810;SDS011;28457;55.680;37.656;2022-09-09T13:41:06;2.25;;;0.80;;
42810;SDS011;28457;55.680;37.656;2022-09-09T13:43:37;4.22;;;2.22;;
42810;SDS011;28457;55.680;37.656;2022-09-09T13:46:23;2.15;;;1.00;;
42810;SDS011;28457;55.680;37.656;2022-09-09T13:48:54;1.30;;;0.90;;
42810;SDS011;28457;55.680;37.656;2022-09-09T13:51:29;3.40;;;1.70;;
42810;SDS011;28457;55.680;37.656;2022-09-09T13:54:04;4.70;;;1.55;;
42810;SDS011;28457;55.680;37.656;2022-09-09T13:56:34;5.15;;;1.80;;
42810;SDS011;28457;55.680;37.656;2022-09-09T13:59:04;3.63;;;1.70;;
42810;SDS011;28457;55.680;37.656;2022-09-09T14:01:36;16.88;;;2.17;;
42810;SDS011;28457;55.680;37.656;2022-09-09T14:04:04;2.03;;;1.00;;
42810;SDS011;28457;55.680;37.656;2022-09-09T14:06:33;3.10;;;0.80;;
42810;SDS011;28457;55.680;37.656;2022-09-09T14:09:03;3.15;;;1.33;;
42810;SDS011;28457;55.680;37.656;2022-09-09T14:11:32;2.97;;;1.40;;
42810;SDS011;28457;55.680;37.656;2022-09-09T14:14:01;3.55;;;1.38;;
42810;SDS011;28457;55.680;37.656;2022-09-09T14:16:29;2.22;;;1.40;;
42810;SDS011;28457;55.680;37.656;2022-09-09T14:18:59;3.92;;;1.48;;
42810;SDS011;28457;55.680;37.656;2022-09-09T14:21:28;7.75;;;1.40;;
42810;SDS011;28457;55.680;37.656;2022-09-09T14:23:56;1.63;;;1.00;;
42810;SDS011;28457;55.680;37.656;2022-09-09T14:26:25;3.53;;;1.00;;
42810;SDS011;28457;55.680;37.656;2022-09-09T14:28:55;4.47;;;0.93;;
42810;SDS011;28457;55.680;37.656;2022-09-09T14:31:24;2.00;;;1.00;;
42810;SDS011;28457;55.680;37.656;2022-09-09T14:33:53;2.72;;;1.00;;
42810;SDS011;28457;55.680;37.656;2022-09-09T14:36:23;4.20;;;1.48;;
42810;SDS011;28457;55.680;37.656;2022-09-09T14:38:52;4.90;;;1.27;;
42810;SDS011;28457;55.680;37.656;2022-09-09T14:41:20;2.88;;;1.10;;
42810;SDS011;28457;55.680;37.656;2022-09-09T14:43:50;1.70;;;1.00;;
42810;SDS011;28457;55.680;37.656;2022-09-09T14:46:19;2.90;;;0.85;;
42810;SDS011;28457;55.680;37.656;2022-09-09T14:48:48;3.85;;;1.25;;
42810;SDS011;28457;55.680;37.656;2022-09-09T14:51:17;3.65;;;1.10;;
42810;SDS011;28457;55.680;37.656;2022-09-09T14:53:52;3.95;;;1.08;;
42810;SDS011;28457;55.680;37.656;2022-09-09T21:21:35;11.95;;;6.00;;
42810;SDS011;28457;55.680;37.656;2022-09-09T21:24:03;12.68;;;6.18;;
42810;SDS011;28457;55.680;37.656;2022-09-09T21:26:32;17.58;;;6.22;;
42810;SDS011;28457;55.680;37.656;2022-09-09T21:29:01;9.30;;;5.40;;
42810;SDS011;28457;55.680;37.656;2022-09-09T21:31:29;15.65;;;7.72;;
42810;SDS011;28457;55.680;37.656;2022-09-09T21:33:58;14.02;;;6.80;;
42810;SDS011;28457;55.680;37.656;2022-09-09T21:36:27;12.35;;;6.53;;
42810;SDS011;28457;55.680;37.656;2022-09-09T21:38:56;17.92;;;7.60;;
42810;SDS011;28457;55.680;37.656;2022-09-09T21:41:25;14.18;;;6.75;;
42810;SDS011;28457;55.680;37.656;2022-09-09T21:43:54;12.23;;;5.95;;
42810;SDS011;28457;55.680;37.656;2022-09-09T21:46:22;9.98;;;5.50;;
42810;SDS011;28457;55.680;37.656;2022-09-09T21:48:52;15.73;;;7.18;;
42810;SDS011;28457;55.680;37.656;2022-09-09T21:51:22;10.70;;;5.90;;
42810;SDS011;28457;55.680;37.656;2022-09-09T21:53:53;9.00;;;5.88;;
42810;SDS011;28457;55.680;37.656;2022-09-09T21:56:24;11.25;;;6.90;;
42810;SDS011;28457;55.680;37.656;2022-09-09T21:58:56;13.00;;;6.13;;
42810;SDS011;28457;55.680;37.656;2022-09-09T22:01:29;12.38;;;7.25;;
42810;SDS011;28457;55.680;37.656;2022-09-09T22:04:00;17.00;;;8.23;;
42810;SDS011;28457;55.680;37.656;2022-09-09T22:06:29;11.05;;;7.25;;
42810;SDS011;28457;55.680;37.656;2022-09-09T22:08:57;16.67;;;8.00;;
42810;SDS011;28457;55.680;37.656;2022-09-09T22:11:28;12.55;;;6.47;;
42810;SDS011;28457;55.680;37.656;2022-09-09T22:13:57;12.02;;;7.72;;
42810;SDS011;28457;55.680;37.656;2022-09-09T22:16:26;10.55;;;6.28;;
42810;SDS011;28457;55.680;37.656;2022-09-09T22:18:55;12.35;;;7.32;;
42810;SDS011;28457;55.680;37.656;2022-09-09T22:21:25;13.95;;;7.50;;
42810;SDS011;28457;55.680;37.656;2022-09-09T22:23:56;11.15;;;6.75;;
42810;SDS011;28457;55.680;37.656;2022-09-09T22:26:27;14.68;;;7.18;;
42810;SDS011;28457;55.680;37.656;2022-09-09T22:28:58;24.40;;;8.55;;
42810;SDS011;28457;55.680;37.656;2022-09-09T22:31:27;10.65;;;6.30;;
42810;SDS011;28457;55.680;37.656;2022-09-09T22:33:56;13.95;;;6.45;;
42810;SDS011;28457;55.680;37.656;2022-09-09T22:36:24;12.20;;;7.05;;
42810;SDS011;28457;55.680;37.656;2022-09-09T22:38:53;12.40;;;6.82;;
42810;SDS011;28457;55.680;37.656;2022-09-09T22:41:22;12.40;;;8.15;;
42810;SDS011;28457;55.680;37.656;2022-09-09T22:43:53;15.25;;;7.97;;
42810;SDS011;28457;55.680;37.656;2022-09-09T22:46:21;11.93;;;7.93;;
42810;SDS011;28457;55.680;37.656;2022-09-09T22:48:50;13.57;;;8.50;;
42810;SDS011;28457;55.680;37.656;2022-09-09T22:51:18;16.50;;;8.48;;
42810;SDS011;28457;55.680;37.656;2022-09-09T22:53:47;11.25;;;6.68;;
42810;SDS011;28457;55.680;37.656;2022-09-09T22:56:16;14.50;;;7.20;;
42810;SDS011;28457;55.680;37.656;2022-09-09T22:58:46;10.05;;;6.50;;
42810;SDS011;28457;55.680;37.656;2022-09-09T23:01:23;15.50;;;8.63;;
42810;SDS011;28457;55.680;37.656;2022-09-09T23:03:53;16.35;;;7.05;;
42810;SDS011;28457;55.680;37.656;2022-09-09T23:06:26;12.63;;;6.57;;
42810;SDS011;28457;55.680;37.656;2022-09-09T23:08:56;8.27;;;5.63;;
42810;SDS011;28457;55.680;37.656;2022-09-09T23:11:27;9.57;;;5.63;;
42810;SDS011;28457;55.680;37.656;2022-09-09T23:13:57;12.88;;;6.90;;
42810;SDS011;28457;55.680;37.656;2022-09-09T23:16:30;11.30;;;6.30;;
42810;SDS011;28457;55.680;37.656;2022-09-09T23:19:00;10.23;;;5.53;;
42810;SDS011;28457;55.680;37.656;2022-09-09T23:21:28;11.43;;;5.57;;
42810;SDS011;28457;55.680;37.656;2022-09-09T23:23:58;14.75;;;7.25;;
42810;SDS011;28457;55.680;37.656;2022-09-09T23:26:26;13.43;;;7.63;;
42810;SDS011;28457;55.680;37.656;2022-09-09T23:28:56;15.50;;;8.07;;
42810;SDS011;28457;55.680;37.656;2022-09-09T23:31:26;15.25;;;7.13;;
42810;SDS011;28457;55.680;37.656;2022-09-09T23:33:58;13.35;;;7.45;;
42810;SDS011;28457;55.680;37.656;2022-09-09T23:36:27;11.95;;;7.53;;
42810;SDS011;28457;55.680;37.656;2022-09-09T23:38:56;12.20;;;6.30;;
42810;SDS011;28457;55.680;37.656;2022-09-09T23:41:26;12.27;;;6.88;;
42810;SDS011;28457;55.680;37.656;2022-09-09T23:43:54;9.27;;;6.53;;
42810;SDS011;28457;55.680;37.656;2022-09-09T23:46:23;9.20;;;5.47;;
42810;SDS011;28457;55.680;37.656;2022-09-09T23:48:54;14.70;;;5.75;;
42810;SDS011;28457;55.680;37.656;2022-09-09T23:51:26;11.82;;;7.00;;
42810;SDS011;28457;55.680;37.656;2022-09-09T23:53:56;11.52;;;5.53;;
42810;SDS011;28457;55.680;37.656;2022-09-09T23:56:29;8.07;;;5.22;;
42810;SDS011;28457;55.680;37.656;2022-09-09T23:58:59;9.65;;;5.55;;
